Tiverton, Rhode Island
Current Conditions -  °F | °C
As of 10:53 AM on Thursday 30 Oct 2014 (Local Time) from KUUU Reporting Station
Clear Clear  
Wind Chill: 14°   Ceiling: Unl
Heat Index: 14°   Visibility: 10mi
Dew Point:   Wind: 8mph
Humidity: 51%   Direction: 320°NW
Pressure: 29.95"   Gusts: NA
Location:  41.62°N, 71.21°W
Report Text: KUUU 301453Z AUTO 32007KT 10SM CLR 14/04 A2995 RMK AO2 SLP142 T01390039 51006
Loading
Personal Weather Stations






























Interactive Weather Map
Tropical Storm Tracking
New forecast layout! Learn more

10-Day Weather Forecast

Advertisements
Track Severe Weather on mobile